الصفحة الرئيسية
METAR-TAF:

METAR-TAF

مطار :

مطار بن سليمان

بن سليمان, المغرب

دائرة عرض: 33-39-20N, خط طول: 007-13-17W, ارتفاع: 191 متر

مراقبة الطقس الحالي

تاريخ ووقت الإصدار 59 دقيقة قبل الساعة 10:00UTC
ريح 7 عقدة من الشمال/الشمال الغربي, الاتجاه يتراوح بين الغرب/الشمال الغربي و الشمال/الشمال الشرقي
درجة الحرارة 25°درجة مئوية
الرطوبة 47%
ضغط 1017 hPa
الرؤية: 8000 متر

METAR: GMMB 231000Z 33007KT 290V020 8000 NSC 25/13 Q1017 NOSIG

زمن: 10:59 (10:59 UTC)


TAF: مفقودة

أرصاد الطقس والتوقعات من أكثر من 4000 مطار (تقارير الطقس للمطار METAR والتنبؤ بالطقس بالمطارTAF).

المحطات المتاحة هي النقط الصفراء والحمراء على الخريطة.

حرك المؤشر فوق النقطة لمعرفة اسم المحطة.

ثم انقر لمعرفة أرصاد وتوقعات الطقس.

لتغيير الخارطة: اضغط على الأزرار الخضراء مع رمز الصليب الأسود للتكبير. على الزر الأخضر مع شرطة للتصغير، أو على الأسهم الخضراء للخرائط المجاورة.


METAR-TAF: